createdAt,value
2022-08-04T00:02:04.912Z,21.28
2022-08-04T00:04:43.084Z,21.31
2022-08-04T00:07:17.275Z,21.21
2022-08-04T00:09:50.681Z,21.02
2022-08-04T00:12:21.511Z,21.16
2022-08-04T00:15:00.807Z,21.12
2022-08-04T00:17:33.778Z,21.01
2022-08-04T00:20:05.144Z,21.00
2022-08-04T00:22:35.975Z,20.98
2022-08-04T00:25:06.138Z,20.96
2022-08-04T00:27:36.487Z,20.87
2022-08-04T00:30:05.837Z,20.89
2022-08-04T00:32:34.926Z,20.76
2022-08-04T00:35:03.497Z,20.75
2022-08-04T00:37:34.111Z,20.73
2022-08-04T00:40:08.308Z,20.91
2022-08-04T00:42:49.496Z,20.80
2022-08-04T00:46:16.215Z,20.82
2022-08-04T00:49:02.307Z,20.80
2022-08-04T00:51:44.857Z,20.94
2022-08-04T00:54:17.891Z,20.89
2022-08-04T00:57:03.987Z,20.87
2022-08-04T00:59:51.066Z,20.77
2022-08-04T01:02:29.950Z,20.79
2022-08-04T01:05:05.471Z,20.45
2022-08-04T01:07:50.671Z,20.56
2022-08-04T01:10:29.811Z,20.46
2022-08-04T01:13:18.863Z,20.42
2022-08-04T01:16:00.404Z,20.41
2022-08-04T01:18:42.814Z,19.35
2022-08-04T01:21:34.814Z,20.30
2022-08-04T01:24:30.751Z,19.95
2022-08-04T01:27:05.063Z,20.20
2022-08-04T01:29:47.122Z,20.33
2022-08-04T01:32:25.470Z,20.35
2022-08-04T01:35:03.671Z,19.87
2022-08-04T01:37:49.293Z,20.22
2022-08-04T01:40:17.981Z,19.57
2022-08-04T01:42:46.724Z,20.00
2022-08-04T01:45:16.778Z,20.17
2022-08-04T01:47:51.846Z,20.11
2022-08-04T01:50:20.696Z,20.06
2022-08-04T01:52:51.382Z,20.05
2022-08-04T01:55:20.746Z,19.42
2022-08-04T01:57:50.352Z,19.77
2022-08-04T02:00:22.091Z,19.53
2022-08-04T02:02:51.590Z,19.91
2022-08-04T02:05:21.638Z,19.93
2022-08-04T02:08:19.543Z,19.86
2022-08-04T02:10:59.282Z,19.79
2022-08-04T02:13:39.182Z,19.84
2022-08-04T02:16:17.510Z,19.82
2022-08-04T02:18:59.109Z,19.81
2022-08-04T02:21:28.913Z,19.79
2022-08-04T02:24:17.056Z,19.30
2022-08-04T02:26:50.869Z,19.28
2022-08-04T02:29:21.964Z,19.56
2022-08-04T02:32:02.752Z,19.55
2022-08-04T02:34:33.851Z,19.60
2022-08-04T02:37:05.003Z,19.44
2022-08-04T02:39:47.756Z,19.56
2022-08-04T02:42:18.429Z,19.53
2022-08-04T02:44:50.997Z,19.34
2022-08-04T02:47:22.814Z,19.50
2022-08-04T02:49:52.937Z,19.36
2022-08-04T02:52:22.407Z,19.47
2022-08-04T02:54:54.414Z,19.49
2022-08-04T02:57:28.038Z,19.38
2022-08-04T03:00:09.502Z,19.43
2022-08-04T03:02:54.794Z,19.52
2022-08-04T03:05:28.974Z,19.21
2022-08-04T03:08:29.941Z,19.49
2022-08-04T03:11:44.458Z,19.43
2022-08-04T03:14:31.410Z,19.40
2022-08-04T03:17:24.047Z,19.32
2022-08-04T03:20:28.274Z,19.37
2022-08-04T03:23:25.645Z,19.34
2022-08-04T03:26:30.583Z,19.31
2022-08-04T03:29:37.511Z,19.28
2022-08-04T03:32:25.312Z,19.07
2022-08-04T03:35:13.651Z,19.16
2022-08-04T03:38:19.042Z,19.17
2022-08-04T03:41:12.164Z,19.13
2022-08-04T03:43:59.706Z,19.07
2022-08-04T03:46:55.294Z,19.09
2022-08-04T03:50:04.997Z,18.94
2022-08-04T03:53:09.484Z,19.08
2022-08-04T03:55:48.268Z,19.05
2022-08-04T03:59:03.811Z,19.06
2022-08-04T04:02:06.817Z,19.08
2022-08-04T04:05:01.503Z,19.14
2022-08-04T04:08:02.024Z,19.12
2022-08-04T04:11:02.074Z,19.08
2022-08-04T04:14:09.043Z,19.18
2022-08-04T04:16:54.322Z,18.98
2022-08-04T04:19:52.948Z,18.63
2022-08-04T04:22:54.010Z,19.39
2022-08-04T04:25:35.874Z,19.66
2022-08-04T04:28:45.081Z,20.12
2022-08-04T04:31:36.010Z,20.81
2022-08-04T04:34:15.856Z,20.97
2022-08-04T04:36:55.474Z,21.20
2022-08-04T04:39:36.172Z,21.07
2022-08-04T04:42:26.394Z,21.74
2022-08-04T04:45:14.916Z,21.73
2022-08-04T04:48:09.716Z,21.50
2022-08-04T04:50:52.946Z,21.43
2022-08-04T04:53:29.141Z,21.37
2022-08-04T04:56:04.552Z,22.08
2022-08-04T04:58:36.542Z,22.11
2022-08-04T05:01:41.026Z,21.79
2022-08-04T05:04:26.972Z,21.46
2022-08-04T05:07:11.624Z,20.99
2022-08-04T05:09:54.959Z,20.80
2022-08-04T05:14:31.742Z,21.26
2022-08-04T05:15:49.236Z,21.72
2022-08-04T05:18:22.505Z,21.47
2022-08-04T05:20:57.234Z,21.32
2022-08-04T05:23:28.798Z,21.21
2022-08-04T05:26:00.849Z,21.62
2022-08-04T05:28:35.123Z,21.49
2022-08-04T05:31:07.475Z,21.61
2022-08-04T05:33:42.847Z,21.43
2022-08-04T05:36:27.467Z,20.73
2022-08-04T05:39:08.353Z,21.34
2022-08-04T05:41:45.620Z,21.36
2022-08-04T05:44:17.843Z,21.61
2022-08-04T05:46:53.979Z,21.94
2022-08-04T05:49:23.946Z,21.86
2022-08-04T05:51:54.985Z,21.73
2022-08-04T05:54:23.845Z,21.78
2022-08-04T05:56:52.672Z,21.85
2022-08-04T05:59:23.720Z,21.96
2022-08-04T06:01:55.827Z,22.16
2022-08-04T06:04:29.238Z,22.13
2022-08-04T06:06:59.014Z,22.17
2022-08-04T06:09:27.326Z,22.46
2022-08-04T06:12:00.186Z,22.70
2022-08-04T06:14:37.066Z,22.80
2022-08-04T06:18:35.417Z,22.61
2022-08-04T06:20:20.008Z,22.76
2022-08-04T06:22:50.599Z,22.92
2022-08-04T06:25:22.133Z,23.22
2022-08-04T06:27:51.641Z,23.34
2022-08-04T06:30:20.951Z,23.71
2022-08-04T06:33:03.814Z,24.02
2022-08-04T06:35:33.777Z,24.16
2022-08-04T06:38:04.251Z,24.23
2022-08-04T06:40:34.654Z,23.86
2022-08-04T06:43:05.096Z,23.87
2022-08-04T06:45:35.494Z,24.45
2022-08-04T06:48:04.482Z,24.76
2022-08-04T06:51:30.241Z,24.97
2022-08-04T06:53:22.953Z,25.29
2022-08-04T06:55:52.691Z,25.44
2022-08-04T06:58:22.943Z,25.56
2022-08-04T07:00:51.957Z,25.48
2022-08-04T07:03:21.838Z,25.45
2022-08-04T07:05:50.548Z,25.76
2022-08-04T07:08:18.985Z,25.56
2022-08-04T07:10:48.423Z,25.60
2022-08-04T07:13:17.591Z,25.88
2022-08-04T07:15:47.733Z,26.30
2022-08-04T07:18:15.777Z,26.76
2022-08-04T07:20:44.524Z,27.02
2022-08-04T07:23:17.422Z,27.31
2022-08-04T07:26:10.978Z,27.51
2022-08-04T07:28:42.135Z,27.55
2022-08-04T07:31:32.544Z,27.38
2022-08-04T07:34:11.511Z,27.23
2022-08-04T07:36:50.962Z,27.60
2022-08-04T07:39:26.396Z,27.81
2022-08-04T07:41:57.827Z,28.03
2022-08-04T07:44:27.371Z,27.82
2022-08-04T07:46:55.520Z,28.09
2022-08-04T07:49:55.156Z,28.25
2022-08-04T07:52:12.916Z,28.49
2022-08-04T07:54:42.139Z,28.88
2022-08-04T07:57:18.874Z,28.74
2022-08-04T07:59:50.299Z,29.11
2022-08-04T08:02:21.581Z,29.47
2022-08-04T08:04:49.889Z,29.74
2022-08-04T08:07:20.534Z,29.68
2022-08-04T08:09:48.638Z,29.88
2022-08-04T08:12:37.423Z,30.20
2022-08-04T08:15:08.241Z,30.35
2022-08-04T08:17:58.300Z,30.32
2022-08-04T08:20:29.670Z,30.53
2022-08-04T08:23:00.531Z,30.67
2022-08-04T08:25:31.349Z,30.89
2022-08-04T08:27:59.510Z,31.02
2022-08-04T08:30:31.434Z,30.97
2022-08-04T08:33:05.588Z,31.12
2022-08-04T08:35:53.225Z,31.14
2022-08-04T08:38:29.980Z,31.53
2022-08-04T08:41:15.111Z,31.61
2022-08-04T08:44:06.557Z,31.57
2022-08-04T08:46:55.795Z,31.59
2022-08-04T08:50:00.822Z,31.69
2022-08-04T08:53:01.980Z,31.89
2022-08-04T08:55:38.375Z,32.10
2022-08-04T08:58:27.930Z,32.31
2022-08-04T09:01:08.255Z,32.47
2022-08-04T09:04:23.751Z,32.22
2022-08-04T09:07:15.830Z,32.33
2022-08-04T09:10:09.975Z,32.56
2022-08-04T09:12:45.907Z,32.56
2022-08-04T09:15:16.749Z,32.33
2022-08-04T09:17:51.426Z,32.32
2022-08-04T09:20:30.372Z,32.57
2022-08-04T09:23:08.870Z,32.72
2022-08-04T09:25:47.737Z,32.70
2022-08-04T09:28:43.684Z,33.10
2022-08-04T09:31:14.789Z,33.05
2022-08-04T09:33:50.521Z,33.17
2022-08-04T09:36:33.501Z,33.20
2022-08-04T09:39:11.273Z,33.17
2022-08-04T09:41:52.598Z,33.42
2022-08-04T09:44:49.831Z,33.28
2022-08-04T09:47:25.993Z,33.25
2022-08-04T09:50:19.672Z,33.36
2022-08-04T09:52:56.279Z,33.23
2022-08-04T09:55:35.897Z,33.42
2022-08-04T09:58:29.450Z,33.71
2022-08-04T10:01:02.634Z,32.11
2022-08-04T10:03:35.852Z,32.97
2022-08-04T10:06:14.965Z,33.34
2022-08-04T10:09:07.152Z,33.85
2022-08-04T10:11:54.561Z,33.91
2022-08-04T10:14:39.939Z,34.11
2022-08-04T10:17:20.763Z,33.43
2022-08-04T10:19:54.989Z,33.64
2022-08-04T10:22:29.926Z,33.65
2022-08-04T10:26:03.101Z,33.60
2022-08-04T10:28:10.177Z,33.40
2022-08-04T10:30:41.724Z,33.36
2022-08-04T10:33:19.511Z,33.41
2022-08-04T10:35:51.256Z,33.50
2022-08-04T10:38:26.977Z,33.81
2022-08-04T10:41:03.056Z,34.16
2022-08-04T10:43:44.075Z,34.26
2022-08-04T10:46:16.064Z,34.21
2022-08-04T10:48:50.708Z,33.73
2022-08-04T10:51:26.909Z,32.79
2022-08-04T10:54:00.994Z,33.87
2022-08-04T10:56:37.247Z,33.85
2022-08-04T10:59:10.326Z,33.91
2022-08-04T11:02:00.927Z,34.06
2022-08-04T11:04:38.858Z,33.94
2022-08-04T11:07:07.522Z,34.02
2022-08-04T11:09:36.448Z,34.12
2022-08-04T11:12:11.404Z,34.10
2022-08-04T11:14:45.537Z,34.26
2022-08-04T11:17:22.054Z,34.38
2022-08-04T11:20:24.764Z,34.40
2022-08-04T11:22:56.480Z,34.41
2022-08-04T11:25:29.296Z,34.54
2022-08-04T11:28:05.516Z,34.45
2022-08-04T11:30:41.686Z,34.38
2022-08-04T11:33:17.915Z,34.83
2022-08-04T11:36:04.326Z,35.12
2022-08-04T11:38:38.845Z,35.26
2022-08-04T11:41:12.015Z,35.32
2022-08-04T11:44:00.501Z,35.34
2022-08-04T11:46:38.199Z,34.65
2022-08-04T11:49:09.572Z,34.82
2022-08-04T11:51:38.235Z,34.66
2022-08-04T11:54:06.514Z,34.54
2022-08-04T11:56:36.833Z,34.67
2022-08-04T11:59:09.300Z,34.83
2022-08-04T12:01:56.091Z,34.98
2022-08-04T12:04:36.054Z,34.49
2022-08-04T12:07:30.156Z,34.93
2022-08-04T12:10:04.913Z,34.73
2022-08-04T12:12:43.159Z,34.97
2022-08-04T12:15:21.641Z,35.10
2022-08-04T12:17:59.272Z,34.76
2022-08-04T12:20:40.762Z,35.08
2022-08-04T12:23:18.579Z,34.97
2022-08-04T12:25:55.777Z,35.35
2022-08-04T12:28:52.569Z,35.79
2022-08-04T12:31:29.614Z,35.59
2022-08-04T12:34:05.263Z,34.69
2022-08-04T12:36:41.212Z,34.82
2022-08-04T12:39:14.097Z,34.87
2022-08-04T12:41:49.625Z,35.21
2022-08-04T12:44:36.807Z,35.10
2022-08-04T12:47:26.495Z,35.59
2022-08-04T12:50:00.682Z,35.65
2022-08-04T12:52:59.029Z,35.08
2022-08-04T12:55:22.231Z,34.91
2022-08-04T12:57:52.195Z,34.95
2022-08-04T13:00:32.006Z,35.34
2022-08-04T13:03:10.554Z,35.68
2022-08-04T13:05:41.387Z,35.53
2022-08-04T13:08:11.457Z,35.31
2022-08-04T13:10:42.563Z,35.14
2022-08-04T13:13:16.973Z,34.94
2022-08-04T13:15:56.560Z,34.51
2022-08-04T13:18:52.511Z,34.63
2022-08-04T13:21:22.891Z,34.96
2022-08-04T13:24:22.786Z,35.17
2022-08-04T13:27:05.072Z,34.94
2022-08-04T13:29:59.865Z,34.85
2022-08-04T13:32:27.033Z,34.88
2022-08-04T13:34:57.040Z,34.79
2022-08-04T13:37:31.813Z,34.82
2022-08-04T13:40:01.324Z,34.68
2022-08-04T13:42:29.937Z,34.74
2022-08-04T13:45:00.937Z,34.83
2022-08-04T13:47:31.608Z,34.89
2022-08-04T13:50:21.009Z,34.95
2022-08-04T13:52:53.031Z,34.41
2022-08-04T13:55:24.502Z,34.45
2022-08-04T13:57:58.403Z,34.54
2022-08-04T14:00:30.648Z,34.41
2022-08-04T14:03:03.282Z,34.61
2022-08-04T14:05:58.860Z,34.91
2022-08-04T14:08:26.252Z,34.77
2022-08-04T14:10:58.187Z,34.92
2022-08-04T14:13:41.039Z,35.00
2022-08-04T14:16:18.743Z,35.16
2022-08-04T14:18:47.268Z,34.63
2022-08-04T14:21:18.695Z,34.81
2022-08-04T14:23:50.600Z,34.79
2022-08-04T14:26:30.024Z,34.56
2022-08-04T14:29:27.604Z,34.50
2022-08-04T14:32:06.012Z,35.22
2022-08-04T14:34:45.001Z,35.28
2022-08-04T14:37:19.798Z,34.95
2022-08-04T14:40:19.073Z,34.17
2022-08-04T14:42:42.232Z,34.35
2022-08-04T14:45:12.210Z,34.29
2022-08-04T14:47:52.283Z,34.22
2022-08-04T14:50:22.866Z,34.18
2022-08-04T14:52:52.048Z,34.13
2022-08-04T14:55:23.574Z,34.13
2022-08-04T14:58:36.168Z,34.01
2022-08-04T15:00:40.975Z,34.18
2022-08-04T15:03:10.861Z,34.16
2022-08-04T15:05:55.155Z,34.24
2022-08-04T15:08:32.022Z,34.17
2022-08-04T15:11:02.811Z,33.99
2022-08-04T15:13:32.059Z,33.85
2022-08-04T15:16:02.315Z,33.69
2022-08-04T15:18:38.764Z,33.65
2022-08-04T15:21:09.156Z,33.56
2022-08-04T15:23:40.241Z,33.12
2022-08-04T15:26:12.790Z,33.36
2022-08-04T15:28:45.827Z,33.31
2022-08-04T15:32:05.553Z,33.41
2022-08-04T15:34:03.379Z,33.38
2022-08-04T15:36:43.987Z,33.29
2022-08-04T15:39:36.218Z,33.18
2022-08-04T15:42:20.886Z,33.12
2022-08-04T15:45:21.100Z,33.13
2022-08-04T15:48:23.541Z,33.01
2022-08-04T15:51:14.378Z,32.95
2022-08-04T15:54:23.464Z,32.90
2022-08-04T15:57:02.038Z,32.47
2022-08-04T16:00:00.282Z,32.02
2022-08-04T16:02:46.991Z,31.59
2022-08-04T16:05:36.755Z,30.84
2022-08-04T16:08:17.636Z,30.68
2022-08-04T16:10:50.961Z,30.56
2022-08-04T16:13:22.319Z,29.95
2022-08-04T16:15:56.077Z,30.31
2022-08-04T16:18:43.709Z,30.45
2022-08-04T16:21:21.166Z,30.34
2022-08-04T16:24:18.505Z,30.20
2022-08-04T16:26:53.747Z,30.35
2022-08-04T16:29:35.680Z,30.09
2022-08-04T16:32:23.752Z,30.39
2022-08-04T16:34:58.814Z,30.17
2022-08-04T16:37:32.318Z,29.70
2022-08-04T16:40:37.495Z,29.85
2022-08-04T16:43:10.105Z,29.70
2022-08-04T16:45:54.256Z,29.66
2022-08-04T16:48:27.313Z,29.63
2022-08-04T16:51:04.602Z,29.64
2022-08-04T16:53:52.005Z,29.73
2022-08-04T16:56:30.330Z,29.33
2022-08-04T16:59:07.503Z,29.54
2022-08-04T17:01:38.219Z,29.43
2022-08-04T17:04:07.347Z,29.40
2022-08-04T17:06:37.937Z,29.38
2022-08-04T17:09:07.976Z,29.03
2022-08-04T17:11:36.253Z,29.33
2022-08-04T17:14:06.036Z,29.24
2022-08-04T17:16:37.593Z,29.20
2022-08-04T17:19:20.062Z,29.17
2022-08-04T17:21:58.860Z,29.17
2022-08-04T17:24:30.848Z,29.16
2022-08-04T17:26:59.785Z,29.13
2022-08-04T17:29:43.286Z,29.05
2022-08-04T17:32:21.173Z,29.05
2022-08-04T17:34:51.059Z,29.11
2022-08-04T17:37:38.326Z,28.62
2022-08-04T17:40:10.315Z,28.96
2022-08-04T17:42:40.369Z,29.08
2022-08-04T17:45:49.297Z,28.88
2022-08-04T17:48:02.849Z,28.53
2022-08-04T17:50:35.820Z,28.83
2022-08-04T17:53:11.597Z,28.66
2022-08-04T17:55:46.871Z,28.69
2022-08-04T17:58:21.096Z,28.76
2022-08-04T18:01:32.902Z,28.75
2022-08-04T18:03:53.179Z,28.74
2022-08-04T18:06:22.881Z,28.63
2022-08-04T18:08:57.448Z,28.59
2022-08-04T18:14:14.529Z,28.49
2022-08-04T18:16:45.627Z,28.56
2022-08-04T18:19:18.927Z,28.71
2022-08-04T18:21:59.468Z,28.59
2022-08-04T18:24:35.991Z,28.49
2022-08-04T18:27:18.522Z,28.34
2022-08-04T18:29:56.453Z,28.24
2022-08-04T18:32:34.963Z,28.20
2022-08-04T18:35:05.586Z,28.15
2022-08-04T18:38:06.245Z,28.00
2022-08-04T18:40:33.231Z,27.95
2022-08-04T18:43:14.347Z,27.90
2022-08-04T18:45:50.948Z,27.93
2022-08-04T18:48:19.532Z,27.97
2022-08-04T18:51:09.444Z,27.87
2022-08-04T18:53:38.383Z,27.97
2022-08-04T18:56:20.098Z,27.72
2022-08-04T18:58:57.655Z,27.86
2022-08-04T19:01:29.954Z,27.66
2022-08-04T19:03:58.675Z,27.70
2022-08-04T19:06:28.299Z,27.55
2022-08-04T19:08:57.920Z,27.56
2022-08-04T19:11:38.137Z,27.63
2022-08-04T19:14:14.350Z,27.56
2022-08-04T19:16:45.710Z,27.47
2022-08-04T19:19:14.124Z,27.50
2022-08-04T19:22:00.576Z,27.49
2022-08-04T19:24:35.363Z,27.40
2022-08-04T19:27:09.129Z,27.45
2022-08-04T19:29:40.602Z,27.50
2022-08-04T19:32:13.964Z,27.48
2022-08-04T19:34:45.725Z,27.49
2022-08-04T19:37:58.173Z,27.46
2022-08-04T19:40:08.159Z,27.31
2022-08-04T19:42:37.773Z,27.26
2022-08-04T19:45:09.027Z,27.09
2022-08-04T19:48:17.600Z,26.77
2022-08-04T19:50:32.284Z,27.08
2022-08-04T19:53:04.200Z,26.94
2022-08-04T19:55:49.737Z,26.91
2022-08-04T19:58:21.524Z,26.71
2022-08-04T20:00:54.800Z,26.78
2022-08-04T20:04:09.986Z,26.73
2022-08-04T20:06:11.794Z,26.53
2022-08-04T20:08:48.121Z,26.58
2022-08-04T20:11:18.520Z,26.50
2022-08-04T20:13:54.682Z,26.68
2022-08-04T20:16:29.581Z,26.51
2022-08-04T20:19:03.297Z,26.66
2022-08-04T20:21:54.415Z,26.49
2022-08-04T20:24:38.908Z,26.43
2022-08-04T20:27:21.732Z,26.50
2022-08-04T20:29:51.499Z,26.29
2022-08-04T20:32:26.762Z,26.28
2022-08-04T20:34:56.707Z,26.10
2022-08-04T20:37:25.453Z,26.18
2022-08-04T20:39:56.516Z,26.13
2022-08-04T20:42:27.672Z,25.92
2022-08-04T20:45:02.049Z,26.15
2022-08-04T20:47:35.693Z,26.28
2022-08-04T20:50:05.826Z,26.02
2022-08-04T20:52:37.695Z,26.10
2022-08-04T20:55:09.054Z,25.95
2022-08-04T20:57:47.956Z,26.01
2022-08-04T21:00:17.023Z,26.15
2022-08-04T21:02:44.955Z,26.17
2022-08-04T21:05:13.045Z,25.98
2022-08-04T21:07:43.748Z,25.60
2022-08-04T21:10:18.333Z,25.82
2022-08-04T21:12:50.662Z,25.34
2022-08-04T21:15:24.621Z,25.59
2022-08-04T21:17:59.454Z,25.79
2022-08-04T21:20:33.549Z,25.72
2022-08-04T21:23:04.981Z,25.60
2022-08-04T21:25:42.753Z,24.92
2022-08-04T21:28:12.346Z,25.02
2022-08-04T21:30:54.277Z,25.25
2022-08-04T21:33:50.032Z,25.38
2022-08-04T21:36:13.545Z,25.14
2022-08-04T21:38:51.123Z,24.78
2022-08-04T21:41:26.877Z,24.74
2022-08-04T21:43:56.555Z,24.71
2022-08-04T21:46:27.304Z,24.64
2022-08-04T21:48:58.500Z,24.93
2022-08-04T21:51:59.669Z,24.83
2022-08-04T21:54:17.392Z,24.80
2022-08-04T21:56:51.004Z,24.74
2022-08-04T21:59:24.345Z,24.59
2022-08-04T22:02:01.020Z,24.26
2022-08-04T22:04:29.814Z,23.86
2022-08-04T22:06:58.376Z,24.30
2022-08-04T22:09:38.717Z,24.27
2022-08-04T22:12:12.527Z,24.47
2022-08-04T22:14:40.897Z,24.42
2022-08-04T22:17:13.551Z,24.53
2022-08-04T22:19:55.194Z,24.04
2022-08-04T22:22:27.089Z,24.23
2022-08-04T22:25:01.285Z,24.10
2022-08-04T22:27:55.089Z,23.90
2022-08-04T22:30:32.916Z,23.91
2022-08-04T22:33:05.623Z,24.17
2022-08-04T22:35:44.050Z,23.89
2022-08-04T22:38:26.186Z,23.76
2022-08-04T22:41:02.589Z,24.08
2022-08-04T22:43:34.730Z,23.07
2022-08-04T22:46:07.754Z,23.51
2022-08-04T22:48:37.434Z,23.48
2022-08-04T22:51:08.089Z,23.56
2022-08-04T22:53:36.863Z,23.59
2022-08-04T22:56:09.873Z,23.91
2022-08-04T22:58:45.256Z,23.84
2022-08-04T23:01:14.921Z,23.63
2022-08-04T23:03:55.403Z,23.39
2022-08-04T23:06:28.388Z,23.58
2022-08-04T23:08:57.572Z,23.45
2022-08-04T23:11:35.127Z,23.46
2022-08-04T23:14:05.979Z,23.29
2022-08-04T23:16:40.323Z,23.38
2022-08-04T23:19:15.148Z,23.35
2022-08-04T23:21:47.448Z,23.18
2022-08-04T23:24:30.015Z,23.11
2022-08-04T23:26:58.202Z,23.20
2022-08-04T23:29:28.009Z,23.01
2022-08-04T23:32:16.107Z,23.27
2022-08-04T23:34:48.657Z,22.98
2022-08-04T23:37:16.793Z,23.12
2022-08-04T23:40:14.315Z,23.27
2022-08-04T23:42:34.681Z,23.18
2022-08-04T23:45:06.223Z,23.09
2022-08-04T23:48:15.843Z,22.90
2022-08-04T23:50:24.342Z,22.87
2022-08-04T23:52:53.621Z,22.47
2022-08-04T23:55:21.966Z,23.02
2022-08-04T23:58:05.308Z,23.01
